Time;durP1;ratioP1;P1;durP2;ratioP2;P2;SDS_P1;SDS_P2;PMS_P1;PMS_P2;Temp;Humidity;BMP_temperature;BMP_pressure;BME280_temperature;BME280_humidity;BME280_pressure;Samples;Min_cycle;Max_cycle;Signal;HPM_P1;HPM_P2
2023/03/15 00:00:33;;;;;;;;;;;;;;;5.19;55.26;98940.13;5071263;28;20010;-84
2023/03/15 00:02:58;;;;;;;;;;;;;;;5.20;55.28;98932.28;5072246;28;20305;-84
2023/03/15 00:05:24;;;;;;;;;;;;;;;5.30;55.17;98935.69;5071195;28;19959;-84
2023/03/15 00:07:49;;;;;;;;;;;;;;;5.32;55.09;98920.84;5071557;28;19927;-85
2023/03/15 00:10:14;;;;;;;;;;;;;;;5.35;55.19;98930.44;5071874;28;20441;-84
2023/03/15 00:12:41;;;;;;;;;;;;;;;5.21;55.40;98930.50;5070513;28;19921;-85
2023/03/15 00:15:07;;;;;;;;;;;;;;;5.16;55.76;98920.06;5071583;28;19916;-85
2023/03/15 00:17:33;;;;;;;;;;;;;;;5.25;56.21;98927.00;5072245;28;20396;-85
2023/03/15 00:19:59;;;;;;;;;;;;;;;5.28;56.17;98932.19;5072002;28;20011;-85
2023/03/15 00:22:24;;;;;;;;;;;;;;;5.38;55.37;98933.03;5069724;28;20011;-85
2023/03/15 00:24:49;;;;;;;;;;;;;;;5.18;55.65;98928.78;5071934;28;19919;-85
2023/03/15 00:27:14;;;;;;;;;;;;;;;5.24;56.18;98922.66;5071036;28;20287;-84
2023/03/15 00:29:40;;;;;;;;;;;;;;;5.14;56.38;98915.72;5071561;28;19919;-85
2023/03/15 00:32:05;;;;;;;;;;;;;;;5.05;56.22;98914.03;5071798;28;19912;-85
2023/03/15 00:34:32;;;;;;;;;;;;;;;4.72;55.61;98912.44;5071121;28;19921;-84
2023/03/15 00:36:57;;;;;;;;;;;;;;;4.46;56.07;98911.66;5070639;28;20405;-85
2023/03/15 00:39:24;;;;;;;;;;;;;;;4.49;56.81;98902.94;5071726;28;19912;-85
2023/03/15 00:41:50;;;;;;;;;;;;;;;4.51;57.67;98902.94;5071610;28;19919;-85
2023/03/15 00:44:15;;;;;;;;;;;;;;;4.43;57.48;98903.84;5071329;28;19916;-85
2023/03/15 00:46:40;;;;;;;;;;;;;;;4.50;57.29;98903.81;5071344;28;19974;-83
2023/03/15 00:49:06;;;;;;;;;;;;;;;4.36;57.39;98904.72;5071204;28;19955;-83
2023/03/15 00:51:32;;;;;;;;;;;;;;;4.48;57.59;98904.69;5071433;28;19916;-84
2023/03/15 00:53:57;;;;;;;;;;;;;;;4.43;57.81;98892.50;5071113;28;19916;-84
2023/03/15 00:56:24;;;;;;;;;;;;;;;4.36;58.38;98889.06;5071185;28;19931;-85
2023/03/15 00:58:53;;;;;;;;;;;;;;;4.17;58.26;98885.63;5071319;28;19962;-84
2023/03/15 01:01:20;;;;;;;;;;;;;;;4.15;57.98;98881.28;5071119;28;19912;-85
2023/03/15 01:03:46;;;;;;;;;;;;;;;4.29;58.02;98888.22;5070327;28;20006;-83
2023/03/15 01:06:14;;;;;;;;;;;;;;;4.50;58.05;98881.19;5071406;28;20030;-84
2023/03/15 01:08:40;;;;;;;;;;;;;;;4.53;58.20;98885.53;5070993;28;19920;-85
2023/03/15 01:11:06;;;;;;;;;;;;;;;4.54;58.11;98884.63;5071298;28;19961;-85
2023/03/15 01:13:32;;;;;;;;;;;;;;;4.36;58.27;98878.59;5070438;28;19912;-86
2023/03/15 01:15:57;;;;;;;;;;;;;;;4.12;58.40;98867.38;5078450;28;19981;-82
2023/03/15 01:18:22;;;;;;;;;;;;;;;3.94;59.28;98872.63;5083834;28;19913;-82
2023/03/15 01:20:48;;;;;;;;;;;;;;;3.73;59.25;98879.56;5074641;28;19920;-84
2023/03/15 01:23:13;;;;;;;;;;;;;;;3.87;59.96;98876.94;5070372;28;19916;-84
2023/03/15 01:25:38;;;;;;;;;;;;;;;3.93;59.66;98886.53;5070370;28;19917;-84
2023/03/15 01:28:04;;;;;;;;;;;;;;;4.22;58.86;98870.81;5070150;28;19947;-84
2023/03/15 01:30:29;;;;;;;;;;;;;;;4.23;59.20;98871.66;5070172;28;20002;-83
2023/03/15 01:32:54;;;;;;;;;;;;;;;4.25;59.20;98883.84;5070625;28;19966;-88
2023/03/15 01:35:20;;;;;;;;;;;;;;;4.12;59.22;98885.63;5070604;28;20015;-84
2023/03/15 01:37:47;;;;;;;;;;;;;;;4.00;58.69;98872.59;5070640;28;19939;-84
2023/03/15 01:40:13;;;;;;;;;;;;;;;3.80;58.35;98875.25;5070962;28;19916;-84
2023/03/15 01:42:51;;;;;;;;;;;;;;;3.86;58.34;98871.72;5070239;28;20006;-84
2023/03/15 01:45:42;;;;;;;;;;;;;;;3.73;57.96;98863.06;5069460;28;19963;-83
2023/03/15 01:48:08;;;;;;;;;;;;;;;3.59;58.13;98863.06;5047235;28;19912;-84
2023/03/15 01:50:33;;;;;;;;;;;;;;;3.72;58.12;98872.63;5070496;28;19963;-84
2023/03/15 01:52:58;;;;;;;;;;;;;;;3.59;58.35;98866.53;5070211;28;20378;-84
2023/03/15 01:55:24;;;;;;;;;;;;;;;3.24;58.07;98871.72;5070410;28;19947;-86
2023/03/15 01:57:54;;;;;;;;;;;;;;;3.17;58.58;98878.66;5070538;28;20350;-85
2023/03/15 02:00:20;;;;;;;;;;;;;;;3.25;58.22;98867.41;5069799;28;19962;-85
2023/03/15 02:02:51;;;;;;;;;;;;;;;3.35;58.67;98869.13;5070250;28;19999;-85
2023/03/15 02:05:34;;;;;;;;;;;;;;;3.36;58.07;98870.88;5070248;28;20405;-85
2023/03/15 02:08:00;;;;;;;;;;;;;;;3.18;58.73;98877.81;5070341;28;19924;-85
2023/03/15 02:10:36;;;;;;;;;;;;;;;3.24;59.17;98866.50;5070440;28;19948;-86
2023/03/15 02:13:02;;;;;;;;;;;;;;;3.38;58.25;98856.97;5070026;28;20398;-83
2023/03/15 02:15:27;;;;;;;;;;;;;;;3.29;58.58;98858.69;5069882;28;19966;-83
2023/03/15 02:17:53;;;;;;;;;;;;;;;3.34;58.87;98864.81;5070423;28;20389;-84
2023/03/15 02:20:27;;;;;;;;;;;;;;;3.44;59.11;98863.06;5069919;28;19919;-83
2023/03/15 02:22:54;;;;;;;;;;;;;;;3.75;58.71;98861.31;5074271;28;20022;-82
2023/03/15 02:25:28;;;;;;;;;;;;;;;3.78;58.41;98863.06;5073881;28;19912;-84
2023/03/15 02:27:54;;;;;;;;;;;;;;;3.78;58.56;98856.09;5073717;28;19963;-84
2023/03/15 02:30:20;;;;;;;;;;;;;;;3.72;58.35;98851.75;5073808;28;19916;-84
2023/03/15 02:32:46;;;;;;;;;;;;;;;3.58;58.46;98850.88;5065043;28;19938;-83
2023/03/15 02:35:11;;;;;;;;;;;;;;;3.62;58.12;98850.03;5069512;28;19970;-83
2023/03/15 02:37:37;;;;;;;;;;;;;;;3.64;58.48;98853.50;5074126;28;20427;-83
2023/03/15 02:40:10;;;;;;;;;;;;;;;3.60;57.97;98851.78;5073661;28;19916;-82
2023/03/15 02:42:36;;;;;;;;;;;;;;;3.43;58.50;98850.88;5073565;28;19916;-82
2023/03/15 02:45:01;;;;;;;;;;;;;;;3.46;58.72;98845.66;5073605;28;19922;-83
2023/03/15 02:47:30;;;;;;;;;;;;;;;3.54;59.01;98850.03;5074026;28;19919;-85
2023/03/15 02:49:55;;;;;;;;;;;;;;;3.64;59.32;98850.88;5073831;28;20287;-86
2023/03/15 02:52:21;;;;;;;;;;;;;;;3.51;59.13;98854.38;5073741;28;19927;-86
2023/03/15 02:54:46;;;;;;;;;;;;;;;3.35;59.51;98854.38;5074177;28;19969;-86
2023/03/15 02:57:13;;;;;;;;;;;;;;;3.38;59.90;98853.47;5073436;28;20363;-86
2023/03/15 02:59:38;;;;;;;;;;;;;;;3.37;59.88;98855.22;5073593;28;19916;-85
2023/03/15 03:02:04;;;;;;;;;;;;;;;3.40;59.93;98850.03;5073211;28;20350;-86
2023/03/15 03:04:29;;;;;;;;;;;;;;;3.45;59.04;98854.38;5073282;28;20350;-86
2023/03/15 03:06:55;;;;;;;;;;;;;;;3.54;59.30;98850.03;5073336;28;19919;-84
2023/03/15 03:09:20;;;;;;;;;;;;;;;3.34;59.42;98852.63;5073213;28;19916;-84
2023/03/15 03:11:45;;;;;;;;;;;;;;;3.29;59.83;98841.34;5072677;28;19913;-86
2023/03/15 03:14:13;;;;;;;;;;;;;;;3.30;60.01;98836.97;5073055;28;19916;-85
2023/03/15 03:16:39;;;;;;;;;;;;;;;3.25;60.45;98829.16;5073135;28;20322;-85
2023/03/15 03:19:04;;;;;;;;;;;;;;;3.19;60.72;98827.41;5072867;28;19923;-85
2023/03/15 03:21:30;;;;;;;;;;;;;;;3.25;60.52;98830.91;5073267;28;20280;-84
2023/03/15 03:23:55;;;;;;;;;;;;;;;3.35;60.44;98832.63;5072721;28;20431;-84
2023/03/15 03:26:21;;;;;;;;;;;;;;;3.25;60.92;98830.91;5072793;28;20340;-84
2023/03/15 03:28:46;;;;;;;;;;;;;;;3.18;60.56;98822.19;5073681;28;20353;-84
2023/03/15 03:31:19;;;;;;;;;;;;;;;3.25;60.82;98829.16;5072994;28;19912;-84
2023/03/15 03:33:45;;;;;;;;;;;;;;;3.29;60.66;98828.31;5072204;28;20002;-83
2023/03/15 03:36:11;;;;;;;;;;;;;;;3.28;61.04;98839.59;5073059;28;20014;-84
2023/03/15 03:38:40;;;;;;;;;;;;;;;3.14;61.18;98826.53;5073099;28;19970;-84
2023/03/15 03:41:06;;;;;;;;;;;;;;;3.16;60.70;98822.19;5072856;28;19916;-83
2023/03/15 03:43:32;;;;;;;;;;;;;;;2.90;60.95;98829.97;5072265;28;19981;-83
2023/03/15 03:45:57;;;;;;;;;;;;;;;2.82;61.65;98819.53;5072202;28;20018;-83
2023/03/15 03:48:22;;;;;;;;;;;;;;;2.81;62.04;98824.72;5073011;28;19917;-83
2023/03/15 03:50:48;;;;;;;;;;;;;;;2.99;61.54;98824.78;5072738;28;19912;-84
2023/03/15 03:53:13;;;;;;;;;;;;;;;3.20;61.92;98817.88;5072246;28;20377;-83
2023/03/15 03:55:38;;;;;;;;;;;;;;;3.02;62.55;98811.75;5072566;28;20425;-84
2023/03/15 03:58:04;;;;;;;;;;;;;;;2.92;62.64;98811.72;5071750;28;19966;-83
2023/03/15 04:00:29;;;;;;;;;;;;;;;2.82;62.10;98809.09;5072176;28;19916;-82
2023/03/15 04:02:54;;;;;;;;;;;;;;;2.51;62.30;98809.03;5072345;28;19919;-83
2023/03/15 04:05:20;;;;;;;;;;;;;;;2.40;62.65;98804.66;5072206;28;19912;-84
2023/03/15 04:07:45;;;;;;;;;;;;;;;2.62;62.94;98809.06;5071052;28;20463;-84
2023/03/15 04:10:13;;;;;;;;;;;;;;;2.40;63.45;98813.34;5072466;28;19919;-83
2023/03/15 04:12:40;;;;;;;;;;;;;;;2.33;64.82;98819.38;5071998;28;19970;-83
2023/03/15 04:15:05;;;;;;;;;;;;;;;2.42;64.59;98816.81;5071638;28;20003;-85
2023/03/15 04:17:31;;;;;;;;;;;;;;;2.63;64.23;98815.16;5071839;28;20024;-84
2023/03/15 04:19:58;;;;;;;;;;;;;;;2.79;64.24;98816.91;5070929;28;20023;-85
2023/03/15 04:22:23;;;;;;;;;;;;;;;2.91;63.79;98815.22;5069642;28;19928;-84
2023/03/15 04:24:53;;;;;;;;;;;;;;;2.97;63.92;98816.09;5068394;28;19939;-87
2023/03/15 04:27:18;;;;;;;;;;;;;;;3.00;63.41;98808.28;5067232;28;19920;-87
2023/03/15 04:29:43;;;;;;;;;;;;;;;2.93;64.08;98809.13;5070739;28;19912;-86
2023/03/15 04:32:09;;;;;;;;;;;;;;;2.82;64.24;98816.94;5070753;28;19959;-87
2023/03/15 04:34:37;;;;;;;;;;;;;;;2.82;64.85;98813.47;5070788;28;19920;-84
2023/03/15 04:37:03;;;;;;;;;;;;;;;2.76;64.69;98803.88;5071103;28;19913;-85
2023/03/15 04:39:29;;;;;;;;;;;;;;;2.54;64.31;98797.75;5070726;28;19916;-85
2023/03/15 04:41:54;;;;;;;;;;;;;;;2.34;64.20;98805.50;5063254;28;19922;-88
2023/03/15 04:44:19;;;;;;;;;;;;;;;2.44;64.25;98815.09;5068862;28;19913;-89
2023/03/15 04:46:45;;;;;;;;;;;;;;;2.50;64.30;98809.91;5068688;28;19960;-90
2023/03/15 04:49:10;;;;;;;;;;;;;;;2.40;64.55;98807.28;5069242;28;20451;-87
2023/03/15 04:51:35;;;;;;;;;;;;;;;2.59;64.43;98806.44;5069288;28;19913;-89
2023/03/15 04:54:02;;;;;;;;;;;;;;;2.56;65.30;98806.44;5068991;28;19927;-89
2023/03/15 04:56:28;;;;;;;;;;;;;;;2.72;64.76;98809.09;5069030;28;19916;-90
2023/03/15 04:58:53;;;;;;;;;;;;;;;2.84;65.36;98804.78;5069855;28;19919;-90
2023/03/15 05:01:19;;;;;;;;;;;;;;;2.93;65.03;98816.94;5061232;28;19981;-88
2023/03/15 05:03:44;;;;;;;;;;;;;;;3.18;65.35;98809.16;5063073;28;20477;-89
2023/03/15 05:06:10;;;;;;;;;;;;;;;3.32;64.71;98807.44;5069167;28;19912;-90
2023/03/15 05:08:35;;;;;;;;;;;;;;;3.27;65.72;98816.13;5069790;28;19948;-89
2023/03/15 05:11:02;;;;;;;;;;;;;;;3.35;65.62;98817.00;5071278;28;19969;-90
2023/03/15 05:13:27;;;;;;;;;;;;;;;3.46;65.88;98822.19;5069899;28;19927;-90
2023/03/15 05:15:52;;;;;;;;;;;;;;;3.59;65.47;98818.72;5070099;28;19908;-90
2023/03/15 05:18:18;;;;;;;;;;;;;;;3.69;65.15;98810.03;5070644;28;20043;-89
2023/03/15 05:20:43;;;;;;;;;;;;;;;3.69;65.00;98810.03;5066789;28;19916;-89
2023/03/15 05:23:08;;;;;;;;;;;;;;;3.79;65.00;98810.00;5071807;28;19923;-88
2023/03/15 05:25:35;;;;;;;;;;;;;;;3.76;64.99;98808.28;5072467;28;21659;-86
2023/03/15 05:28:03;;;;;;;;;;;;;;;3.72;65.42;98804.81;5071088;28;20029;-89
2023/03/15 05:30:28;;;;;;;;;;;;;;;3.80;65.48;98807.41;5069916;28;20007;-90
2023/03/15 05:32:54;;;;;;;;;;;;;;;3.86;65.67;98809.13;5083310;28;19960;-90
2023/03/15 05:35:19;;;;;;;;;;;;;;;3.86;65.44;98811.72;5090335;28;19972;-90
2023/03/15 05:37:44;;;;;;;;;;;;;;;3.78;66.93;98811.75;5089737;28;19954;-89
2023/03/15 05:40:10;;;;;;;;;;;;;;;3.95;66.53;98809.09;5096106;28;19927;-88
2023/03/15 05:42:35;;;;;;;;;;;;;;;3.84;66.68;98805.66;5096096;28;19920;-81
2023/03/15 05:45:01;;;;;;;;;;;;;;;3.75;67.57;98801.31;5083750;28;20363;-86
2023/03/15 05:47:27;;;;;;;;;;;;;;;3.89;67.12;98804.78;5072525;28;19941;-90
2023/03/15 05:49:53;;;;;;;;;;;;;;;3.94;66.96;98802.16;5069411;28;19961;-91
2023/03/15 05:52:18;;;;;;;;;;;;;;;4.06;66.90;98796.91;5070551;28;19999;-88
2023/03/15 05:54:43;;;;;;;;;;;;;;;4.05;66.75;98797.75;5060999;28;20360;-91
2023/03/15 05:57:09;;;;;;;;;;;;;;;4.12;66.53;98811.66;5069512;28;19919;-91
2023/03/15 05:59:34;;;;;;;;;;;;;;;4.19;66.69;98807.31;5071421;28;19916;-92
2023/03/15 06:02:00;;;;;;;;;;;;;;;4.23;66.52;98814.22;5063916;28;20040;-92
2023/03/15 06:04:25;;;;;;;;;;;;;;;4.33;66.60;98808.13;5070266;28;19966;-91
2023/03/15 06:06:51;;;;;;;;;;;;;;;4.30;66.89;98813.34;5072665;28;19920;-93
2023/03/15 06:09:16;;;;;;;;;;;;;;;4.29;66.82;98804.66;5074128;28;19916;-92
2023/03/15 06:11:41;;;;;;;;;;;;;;;4.32;67.56;98805.50;5072648;28;19916;-90
2023/03/15 06:14:07;;;;;;;;;;;;;;;4.29;69.02;98809.88;5073705;28;20301;-90
2023/03/15 06:16:32;;;;;;;;;;;;;;;4.69;68.68;98807.94;5074283;28;20394;-90
2023/03/15 06:18:57;;;;;;;;;;;;;;;4.90;67.58;98818.28;5072595;28;19922;-90
2023/03/15 06:21:23;;;;;;;;;;;;;;;4.75;66.74;98816.63;5071619;28;19923;-90
2023/03/15 06:23:48;;;;;;;;;;;;;;;4.90;66.98;98817.41;5071452;28;19924;-90
2023/03/15 06:26:14;;;;;;;;;;;;;;;4.58;67.56;98818.44;5074448;28;19912;-90
2023/03/15 06:28:39;;;;;;;;;;;;;;;4.59;68.77;98818.44;5074115;28;19919;-90
2023/03/15 06:31:08;;;;;;;;;;;;;;;5.00;67.49;98825.19;5074073;28;19959;-91
2023/03/15 06:33:34;;;;;;;;;;;;;;;5.12;65.76;98818.13;5074405;28;19912;-91
2023/03/15 06:35:59;;;;;;;;;;;;;;;4.93;66.79;98806.94;5074528;28;20011;-91
2023/03/15 06:38:24;;;;;;;;;;;;;;;5.18;67.06;98808.50;5073763;28;19961;-91
2023/03/15 06:40:50;;;;;;;;;;;;;;;5.22;66.25;98809.38;5073861;28;19912;-89
2023/03/15 06:43:18;;;;;;;;;;;;;;;5.17;67.49;98803.28;5073618;28;19916;-90
2023/03/15 06:45:46;;;;;;;;;;;;;;;5.44;66.54;98804.81;5073863;28;20397;-92
2023/03/15 06:48:12;;;;;;;;;;;;;;;6.04;65.02;98800.75;5073714;28;19935;-91
2023/03/15 06:50:38;;;;;;;;;;;;;;;6.32;64.27;98800.44;5074108;28;19912;-90
2023/03/15 06:53:03;;;;;;;;;;;;;;;6.38;63.02;98798.66;5073826;28;19912;-89
2023/03/15 06:55:28;;;;;;;;;;;;;;;6.54;63.25;98793.22;5072817;28;19912;-90
2023/03/15 06:57:53;;;;;;;;;;;;;;;6.52;62.26;98802.81;5072903;28;20004;-88
2023/03/15 07:00:19;;;;;;;;;;;;;;;6.66;61.76;98795.66;5073722;28;19929;-92
2023/03/15 07:02:44;;;;;;;;;;;;;;;6.93;61.13;98790.91;5073179;28;20341;-91
2023/03/15 07:05:10;;;;;;;;;;;;;;;6.89;61.43;98795.34;5072731;28;20294;-88
2023/03/15 07:07:35;;;;;;;;;;;;;;;7.26;60.79;98801.78;5072490;28;20392;-89
2023/03/15 07:10:00;;;;;;;;;;;;;;;7.51;59.57;98792.63;5072943;28;19919;-89
2023/03/15 07:12:26;;;;;;;;;;;;;;;7.65;59.47;98794.16;5072345;28;19912;-88
2023/03/15 07:14:51;;;;;;;;;;;;;;;8.02;58.82;98782.97;5072826;28;20311;-89
2023/03/15 07:17:16;;;;;;;;;;;;;;;8.03;58.56;98779.44;5072452;28;19924;-89
2023/03/15 07:19:42;;;;;;;;;;;;;;;8.45;58.16;98787.41;5072515;28;19959;-90
2023/03/15 07:22:07;;;;;;;;;;;;;;;8.48;57.54;98787.34;5072151;28;19923;-90
2023/03/15 07:24:32;;;;;;;;;;;;;;;8.30;57.23;98790.31;5072164;28;19912;-90
2023/03/15 07:26:59;;;;;;;;;;;;;;;8.29;56.02;98781.53;5072087;28;20394;-90
2023/03/15 07:29:24;;;;;;;;;;;;;;;8.20;56.65;98789.63;5072254;28;20008;-89
2023/03/15 07:31:50;;;;;;;;;;;;;;;8.36;55.82;98785.78;5071053;28;20011;-89
2023/03/15 07:34:15;;;;;;;;;;;;;;;7.86;56.40;98775.38;5072839;28;19919;-90
2023/03/15 07:36:40;;;;;;;;;;;;;;;7.82;57.81;98783.34;5072185;28;19951;-90
2023/03/15 07:39:06;;;;;;;;;;;;;;;8.02;57.10;98782.97;5071942;28;20029;-90
2023/03/15 07:41:31;;;;;;;;;;;;;;;8.39;55.60;98784.88;5071851;28;19912;-88
2023/03/15 07:43:56;;;;;;;;;;;;;;;8.57;55.23;98783.63;5071806;28;19916;-89
2023/03/15 07:46:22;;;;;;;;;;;;;;;8.90;53.25;98775.91;5072025;28;20289;-88
2023/03/15 07:48:47;;;;;;;;;;;;;;;9.16;52.80;98771.78;5072297;28;20298;-88
2023/03/15 07:51:12;;;;;;;;;;;;;;;9.06;52.66;98771.16;5073031;28;20306;-91
2023/03/15 07:53:38;;;;;;;;;;;;;;;9.14;52.24;98764.81;5072545;28;19913;-90
2023/03/15 07:56:03;;;;;;;;;;;;;;;9.13;52.27;98765.72;5072440;28;19982;-89
2023/03/15 07:58:29;;;;;;;;;;;;;;;8.88;52.03;98778.59;5071561;28;19919;-89
2023/03/15 08:00:55;;;;;;;;;;;;;;;9.17;52.74;98766.50;5071792;28;19919;-90
2023/03/15 08:03:20;;;;;;;;;;;;;;;9.36;51.57;98753.78;5071905;28;20388;-90
2023/03/15 08:05:46;;;;;;;;;;;;;;;9.63;50.12;98754.81;5071501;28;19943;-86
2023/03/15 08:08:11;;;;;;;;;;;;;;;9.66;50.38;98756.50;5071862;28;19916;-89
2023/03/15 08:10:36;;;;;;;;;;;;;;;9.53;52.50;98750.72;5071335;28;19916;-89
2023/03/15 08:13:02;;;;;;;;;;;;;;;9.86;51.50;98741.03;5087223;28;19912;-90
2023/03/15 08:15:27;;;;;;;;;;;;;;;10.25;50.03;98742.59;5071407;28;19958;-89
2023/03/15 08:17:53;;;;;;;;;;;;;;;10.18;49.06;98730.50;5069680;28;19970;-89
2023/03/15 08:20:18;;;;;;;;;;;;;;;9.75;50.73;98732.56;5071516;28;19916;-88
2023/03/15 08:22:44;;;;;;;;;;;;;;;9.91;49.84;98717.19;5071083;28;19920;-91
2023/03/15 08:25:11;;;;;;;;;;;;;;;9.53;50.62;98710.34;5070058;28;20016;-89
2023/03/15 08:27:36;;;;;;;;;;;;;;;9.31;51.32;98697.72;5070692;28;19912;-90
2023/03/15 08:30:02;;;;;;;;;;;;;;;9.51;52.08;98689.31;5071070;28;20451;-90
2023/03/15 08:32:27;;;;;;;;;;;;;;;9.50;51.58;98696.34;5071912;28;19995;-90
2023/03/15 08:34:53;;;;;;;;;;;;;;;9.68;51.32;98696.75;5071731;28;19912;-89
2023/03/15 08:37:18;;;;;;;;;;;;;;;9.88;50.50;98682.19;5072051;28;19912;-88
2023/03/15 08:39:44;;;;;;;;;;;;;;;9.86;50.42;98693.63;5072630;28;19916;-89
2023/03/15 08:42:09;;;;;;;;;;;;;;;9.94;50.28;98690.75;5072565;28;19912;-90
2023/03/15 08:44:34;;;;;;;;;;;;;;;9.57;51.12;98680.41;5071215;28;19912;-89
2023/03/15 08:47:00;;;;;;;;;;;;;;;9.75;50.71;98684.31;5071658;28;20401;-89
2023/03/15 08:49:25;;;;;;;;;;;;;;;10.00;50.65;98681.84;5071124;28;19932;-90
2023/03/15 08:51:51;;;;;;;;;;;;;;;9.99;52.11;98688.00;5073034;28;19923;-92
2023/03/15 08:54:16;;;;;;;;;;;;;;;10.11;50.54;98687.66;5070458;28;19912;-89
2023/03/15 08:56:42;;;;;;;;;;;;;;;10.44;50.15;98686.72;5071375;28;19909;-89
2023/03/15 08:59:07;;;;;;;;;;;;;;;10.71;48.97;98693.78;5071606;28;20453;-88
2023/03/15 09:01:33;;;;;;;;;;;;;;;11.17;50.31;98675.59;5071233;28;20323;-88
2023/03/15 09:04:00;;;;;;;;;;;;;;;11.58;48.14;98675.06;5071138;28;20015;-88
2023/03/15 09:06:25;;;;;;;;;;;;;;;11.60;48.00;98667.94;5071243;28;20007;-89
2023/03/15 09:08:52;;;;;;;;;;;;;;;11.64;47.18;98666.94;5071277;28;20449;-89
2023/03/15 09:11:18;;;;;;;;;;;;;;;11.48;46.22;98663.97;5071303;28;20386;-89
2023/03/15 09:13:43;;;;;;;;;;;;;;;11.54;47.24;98657.59;5071336;28;19961;-88
2023/03/15 09:16:08;;;;;;;;;;;;;;;11.42;47.02;98658.91;5071419;28;19974;-88
2023/03/15 09:18:34;;;;;;;;;;;;;;;11.19;46.52;98663.19;5071899;28;19913;-88
2023/03/15 09:21:00;;;;;;;;;;;;;;;11.19;46.76;98663.19;5071660;28;19917;-89
2023/03/15 09:23:26;;;;;;;;;;;;;;;11.27;46.22;98657.66;5071178;28;19918;-89
2023/03/15 09:25:51;;;;;;;;;;;;;;;10.81;47.64;98660.03;5071171;28;20003;-89
2023/03/15 09:28:17;;;;;;;;;;;;;;;10.64;48.54;98650.03;5071208;28;19919;-89
2023/03/15 09:30:42;;;;;;;;;;;;;;;11.07;46.98;98656.53;5070128;28;19919;-88
2023/03/15 09:33:07;;;;;;;;;;;;;;;11.34;46.68;98648.63;5071057;28;20007;-89
2023/03/15 09:35:33;;;;;;;;;;;;;;;11.45;47.27;98640.31;5071148;28;19973;-89
2023/03/15 09:37:59;;;;;;;;;;;;;;;11.78;45.95;98640.00;5071151;28;19935;-88
2023/03/15 09:40:26;;;;;;;;;;;;;;;11.84;45.00;98631.84;5071040;28;19924;-88
2023/03/15 09:43:00;;;;;;;;;;;;;;;11.78;45.85;98643.50;5070611;28;19997;-89
2023/03/15 09:45:25;;;;;;;;;;;;;;;11.68;46.82;98642.13;5071215;28;19916;-89
2023/03/15 09:47:54;;;;;;;;;;;;;;;11.79;45.90;98642.59;5071587;28;20075;-89
2023/03/15 09:50:25;;;;;;;;;;;;;;;12.30;44.60;98637.22;5071372;28;19920;-87
2023/03/15 09:52:57;;;;;;;;;;;;;;;12.24;44.20;98629.53;5071798;28;19919;-91
2023/03/15 09:55:24;;;;;;;;;;;;;;;12.54;44.55;98624.81;5087582;28;19936;-91
2023/03/15 09:57:55;;;;;;;;;;;;;;;12.46;44.65;98619.81;5093580;28;19923;-89
2023/03/15 10:00:25;;;;;;;;;;;;;;;12.12;44.51;98620.28;5088547;28;20119;-88
2023/03/15 10:02:55;;;;;;;;;;;;;;;11.95;44.27;98626.22;5093875;28;19920;-88
2023/03/15 10:05:24;;;;;;;;;;;;;;;11.88;44.41;98609.69;5090453;28;19928;-83
2023/03/15 10:07:51;;;;;;;;;;;;;;;11.76;44.70;98604.88;5075913;28;20302;-84
2023/03/15 10:10:17;;;;;;;;;;;;;;;12.19;43.38;98603.28;5064269;28;19921;-83
2023/03/15 10:12:45;;;;;;;;;;;;;;;12.28;43.71;98589.69;5070461;28;19912;-84
2023/03/15 10:15:24;;;;;;;;;;;;;;;12.33;44.69;98589.50;5070539;28;20348;-84
2023/03/15 10:17:50;;;;;;;;;;;;;;;12.66;43.10;98591.72;5070730;28;19912;-84
2023/03/15 10:20:17;;;;;;;;;;;;;;;12.48;42.96;98590.66;5059575;28;20369;-85
2023/03/15 10:22:57;;;;;;;;;;;;;;;12.40;43.36;98592.75;5067184;28;20930;-84
2023/03/15 10:25:24;;;;;;;;;;;;;;;12.56;42.93;98595.63;5069326;28;19912;-87
2023/03/15 10:27:52;;;;;;;;;;;;;;;13.02;42.71;98594.63;5061140;28;20000;-84
2023/03/15 10:30:20;;;;;;;;;;;;;;;12.83;42.67;98588.38;5063310;28;19912;-84
2023/03/15 10:32:48;;;;;;;;;;;;;;;12.85;43.56;98592.69;5069812;28;19917;-87
2023/03/15 10:35:15;;;;;;;;;;;;;;;12.83;45.15;98585.72;5069638;28;19916;-85
2023/03/15 10:37:41;;;;;;;;;;;;;;;13.15;44.23;98588.78;5069108;28;20007;-84
2023/03/15 10:40:14;;;;;;;;;;;;;;;12.12;44.41;98591.22;5068674;28;19947;-83
2023/03/15 10:42:40;;;;;;;;;;;;;;;12.40;45.84;98587.47;5070811;28;19916;-84
2023/03/15 10:45:18;;;;;;;;;;;;;;;12.76;46.73;98577.19;5072953;28;19916;-82
2023/03/15 10:47:44;;;;;;;;;;;;;;;12.67;44.12;98570.47;5070834;28;20005;-84
2023/03/15 10:50:15;;;;;;;;;;;;;;;12.81;44.09;98567.25;5073302;28;19943;-83
2023/03/15 10:52:42;;;;;;;;;;;;;;;12.63;43.79;98566.22;5070672;28;20078;-84
2023/03/15 10:55:15;;;;;;;;;;;;;;;12.62;45.27;98567.16;5072754;28;19923;-86
2023/03/15 10:57:50;;;;;;;;;;;;;;;12.62;43.64;98574.22;5072743;28;19916;-83
2023/03/15 11:00:25;;;;;;;;;;;;;;;12.95;43.93;98564.03;5073671;28;19919;-83
2023/03/15 11:02:59;;;;;;;;;;;;;;;13.22;42.84;98555.81;5073326;28;19915;-87
2023/03/15 11:05:28;;;;;;;;;;;;;;;13.47;43.18;98565.34;5073187;28;19935;-87
2023/03/15 11:07:55;;;;;;;;;;;;;;;13.39;45.05;98566.56;5073074;28;19912;-88
2023/03/15 11:10:22;;;;;;;;;;;;;;;13.16;40.86;98567.53;5073290;28;19913;-87
2023/03/15 11:12:47;;;;;;;;;;;;;;;13.28;41.71;98571.41;5073059;28;20456;-88
2023/03/15 11:15:14;;;;;;;;;;;;;;;13.83;42.41;98561.97;5073183;28;19916;-86
2023/03/15 11:17:43;;;;;;;;;;;;;;;13.59;40.65;98562.13;5072280;28;19913;-90
2023/03/15 11:20:18;;;;;;;;;;;;;;;13.98;40.65;98555.94;5073101;28;19916;-86
2023/03/15 11:22:43;;;;;;;;;;;;;;;13.86;41.48;98560.03;5072523;28;19923;-86
2023/03/15 11:25:15;;;;;;;;;;;;;;;14.17;41.53;98555.94;5072858;28;19920;-86
2023/03/15 11:27:49;;;;;;;;;;;;;;;13.94;40.70;98552.56;5072705;28;19916;-87
2023/03/15 11:30:16;;;;;;;;;;;;;;;14.10;39.19;98542.13;5073296;28;20295;-87
2023/03/15 11:32:42;;;;;;;;;;;;;;;13.68;40.67;98543.16;5073045;28;19922;-88
2023/03/15 11:35:08;;;;;;;;;;;;;;;13.74;40.75;98532.28;5072933;28;20370;-87
2023/03/15 11:37:40;;;;;;;;;;;;;;;13.73;41.97;98529.72;5071646;28;19919;-87
2023/03/15 11:40:06;;;;;;;;;;;;;;;14.10;39.91;98527.97;5073145;28;19961;-89
2023/03/15 11:42:38;;;;;;;;;;;;;;;14.11;39.92;98524.41;5072553;28;19977;-86
2023/03/15 11:45:22;;;;;;;;;;;;;;;14.21;40.38;98525.69;5072515;28;19912;-86
2023/03/15 11:47:53;;;;;;;;;;;;;;;14.26;40.05;98528.13;5072605;28;19970;-88
2023/03/15 11:50:19;;;;;;;;;;;;;;;13.60;40.01;98529.44;5072593;28;19966;-89
2023/03/15 11:52:51;;;;;;;;;;;;;;;13.24;40.53;98519.53;5071494;28;19916;-93
2023/03/15 11:55:19;;;;;;;;;;;;;;;13.09;40.75;98515.78;5073279;28;19995;-86
2023/03/15 11:57:46;;;;;;;;;;;;;;;12.87;41.09;98505.28;5072381;28;19973;-89
2023/03/15 12:00:34;;;;;;;;;;;;;;;12.99;41.09;98498.56;5072726;28;20018;-88
2023/03/15 12:03:22;;;;;;;;;;;;;;;13.08;41.50;98511.41;5010075;28;20384;-87
2023/03/15 12:05:48;;;;;;;;;;;;;;;12.58;41.10;98507.38;4993282;28;20507;-89
2023/03/15 12:08:20;;;;;;;;;;;;;;;12.77;42.16;98517.16;5010583;28;19921;-90
2023/03/15 12:10:46;;;;;;;;;;;;;;;12.75;42.33;98514.59;5011007;28;19931;-90
2023/03/15 12:13:28;;;;;;;;;;;;;;;12.86;42.64;98507.03;5010966;28;19956;-89
2023/03/15 12:15:53;;;;;;;;;;;;;;;12.80;40.77;98498.53;5011801;28;19935;-88
2023/03/15 12:18:20;;;;;;;;;;;;;;;13.20;40.44;98497.63;5011130;28;19917;-89
2023/03/15 12:20:50;;;;;;;;;;;;;;;13.27;40.08;98498.22;5011316;28;20827;-87
2023/03/15 12:23:15;;;;;;;;;;;;;;;12.97;40.57;98496.00;5010480;28;20430;-89
2023/03/15 12:25:56;;;;;;;;;;;;;;;13.28;41.62;98499.91;5010835;28;19914;-89
2023/03/15 12:28:25;;;;;;;;;;;;;;;13.10;40.54;98496.34;5010750;28;20446;-86
2023/03/15 12:30:52;;;;;;;;;;;;;;;13.37;39.73;98510.13;5010730;28;19913;-86
2023/03/15 12:33:19;;;;;;;;;;;;;;;13.22;40.65;98503.72;5010609;28;19913;-89
2023/03/15 12:35:45;;;;;;;;;;;;;;;13.51;42.09;98485.66;5010565;28;19913;-89
2023/03/15 12:38:18;;;;;;;;;;;;;;;13.68;40.41;98486.69;5010122;28;19913;-93
2023/03/15 12:40:52;;;;;;;;;;;;;;;13.18;41.18;98477.44;5041223;28;19947;-91
2023/03/15 12:43:36;;;;;;;;;;;;;;;13.32;39.73;98475.03;5065307;28;19916;-91
2023/03/15 12:46:02;;;;;;;;;;;;;;;12.83;41.10;98477.22;5071972;28;19960;-91
2023/03/15 12:48:28;;;;;;;;;;;;;;;12.90;40.57;98474.22;5071883;28;20422;-90
2023/03/15 12:51:00;;;;;;;;;;;;;;;12.39;41.95;98479.97;5071876;28;19913;-90